createdAt,value
2023-01-10T00:01:43.568Z,5.30
2023-01-10T00:04:21.419Z,5.34
2023-01-10T00:06:49.234Z,5.36
2023-01-10T00:09:16.342Z,5.37
2023-01-10T00:12:01.451Z,5.39
2023-01-10T00:14:29.415Z,5.37
2023-01-10T00:17:02.732Z,5.34
2023-01-10T00:19:45.634Z,5.29
2023-01-10T00:22:12.252Z,5.29
2023-01-10T00:24:43.065Z,5.28
2023-01-10T00:27:31.245Z,5.25
2023-01-10T00:30:19.357Z,5.21
2023-01-10T00:32:49.231Z,5.20
2023-01-10T00:35:16.359Z,5.17
2023-01-10T00:37:46.080Z,5.14
2023-01-10T00:40:20.124Z,5.09
2023-01-10T00:43:14.641Z,5.12
2023-01-10T00:45:41.286Z,5.13
2023-01-10T00:48:08.302Z,5.16
2023-01-10T00:50:39.961Z,5.19
2023-01-10T00:53:06.783Z,5.32
2023-01-10T00:55:34.764Z,5.33
2023-01-10T00:58:01.488Z,5.36
2023-01-10T01:00:28.729Z,5.44
2023-01-10T01:02:59.402Z,5.44
2023-01-10T01:05:26.089Z,5.43
2023-01-10T01:07:52.928Z,5.44
2023-01-10T01:10:34.970Z,5.54
2023-01-10T01:13:29.144Z,5.54
2023-01-10T01:15:59.489Z,5.54
2023-01-10T01:18:27.502Z,5.56
2023-01-10T01:20:56.934Z,5.50
2023-01-10T01:23:28.243Z,5.55
2023-01-10T01:25:56.232Z,5.60
2023-01-10T01:28:31.799Z,5.63
2023-01-10T01:31:01.598Z,5.64
2023-01-10T01:33:37.607Z,5.63
2023-01-10T01:36:12.719Z,5.60
2023-01-10T01:38:40.972Z,5.60
2023-01-10T01:41:32.503Z,5.59
2023-01-10T01:44:20.901Z,5.63
2023-01-10T01:46:56.585Z,5.59
2023-01-10T01:49:48.217Z,5.57
2023-01-10T01:52:24.919Z,5.48
2023-01-10T01:55:00.751Z,5.44
2023-01-10T01:57:32.057Z,5.45
2023-01-10T02:00:02.299Z,5.43
2023-01-10T02:02:46.036Z,5.45
2023-01-10T02:05:24.911Z,5.34
2023-01-10T02:08:10.978Z,5.35
2023-01-10T02:11:03.778Z,5.27
2023-01-10T02:13:45.455Z,5.20
2023-01-10T02:16:12.269Z,5.15
2023-01-10T02:18:42.608Z,5.16
2023-01-10T02:21:22.700Z,5.27
2023-01-10T02:24:07.793Z,5.23
2023-01-10T02:27:09.296Z,5.11
2023-01-10T02:30:08.496Z,5.01
2023-01-10T02:33:18.433Z,5.00
2023-01-10T02:36:28.783Z,4.96
2023-01-10T02:39:21.918Z,4.96
2023-01-10T02:41:58.041Z,5.04
2023-01-10T02:44:49.097Z,5.10
2023-01-10T02:47:28.989Z,5.19
2023-01-10T02:49:58.881Z,5.17
2023-01-10T02:52:31.502Z,5.15
2023-01-10T02:55:08.476Z,5.24
2023-01-10T02:57:38.147Z,5.25
2023-01-10T03:00:13.552Z,5.29
2023-01-10T03:03:06.218Z,5.30
2023-01-10T03:06:02.725Z,5.32
2023-01-10T03:09:02.979Z,5.41
2023-01-10T03:11:40.975Z,5.43
2023-01-10T03:14:32.496Z,5.37
2023-01-10T03:17:07.292Z,5.37
2023-01-10T03:19:42.197Z,5.38
2023-01-10T03:22:11.542Z,5.37
2023-01-10T03:24:56.202Z,5.37
2023-01-10T03:27:58.392Z,5.39
2023-01-10T03:30:42.001Z,5.45
2023-01-10T03:33:11.250Z,5.49
2023-01-10T03:36:10.407Z,5.45
2023-01-10T03:39:16.479Z,5.42
2023-01-10T03:41:54.356Z,5.51
2023-01-10T03:44:48.328Z,5.49
2023-01-10T03:47:50.396Z,5.51
2023-01-10T03:50:35.415Z,5.43
2023-01-10T03:53:02.089Z,5.41
2023-01-10T03:55:35.655Z,5.36
2023-01-10T03:58:05.328Z,5.30
2023-01-10T04:00:42.753Z,5.30
2023-01-10T04:03:09.954Z,5.30
2023-01-10T04:05:44.071Z,5.35
2023-01-10T04:08:17.277Z,5.42
2023-01-10T04:10:43.864Z,5.44
2023-01-10T04:13:16.933Z,5.41
2023-01-10T04:15:50.816Z,5.37
2023-01-10T04:18:20.480Z,5.36
2023-01-10T04:20:52.216Z,5.33
2023-01-10T04:23:19.255Z,5.30
2023-01-10T04:25:48.997Z,5.29
2023-01-10T04:28:19.225Z,5.33
2023-01-10T04:30:45.837Z,5.39
2023-01-10T04:33:15.634Z,5.39
2023-01-10T04:35:48.319Z,5.43
2023-01-10T04:38:15.942Z,5.40
2023-01-10T04:40:43.244Z,5.42
2023-01-10T04:43:16.280Z,5.42
2023-01-10T04:45:49.416Z,5.45
2023-01-10T04:48:26.675Z,5.40
2023-01-10T04:50:54.730Z,5.40
2023-01-10T04:53:22.202Z,5.39
2023-01-10T04:55:48.942Z,5.32
2023-01-10T04:58:18.580Z,5.34
2023-01-10T05:00:46.256Z,5.32
2023-01-10T05:03:14.153Z,5.27
2023-01-10T05:05:46.886Z,5.27
2023-01-10T05:08:29.683Z,5.28
2023-01-10T05:10:56.298Z,5.26
2023-01-10T05:13:41.776Z,5.21
2023-01-10T05:16:08.727Z,5.19
2023-01-10T05:18:35.922Z,5.23
2023-01-10T05:21:05.294Z,5.25
2023-01-10T05:23:53.764Z,5.21
2023-01-10T05:26:23.441Z,5.25
2023-01-10T05:28:56.865Z,5.31
2023-01-10T05:31:23.483Z,5.31
2023-01-10T05:33:54.765Z,5.28
2023-01-10T05:36:24.379Z,5.38
2023-01-10T05:38:50.983Z,5.35
2023-01-10T05:41:17.621Z,5.35
2023-01-10T05:43:50.065Z,5.34
2023-01-10T05:46:16.780Z,5.31
2023-01-10T05:48:43.572Z,5.33
2023-01-10T05:51:16.993Z,5.32
2023-01-10T05:53:46.251Z,5.35
2023-01-10T05:56:13.070Z,5.38
2023-01-10T05:58:40.066Z,5.38
2023-01-10T06:01:06.878Z,5.38
2023-01-10T06:03:33.527Z,5.38
2023-01-10T06:06:04.062Z,5.38
2023-01-10T06:08:31.315Z,5.42
2023-01-10T06:10:58.060Z,5.40
2023-01-10T06:13:27.489Z,5.42
2023-01-10T06:15:54.149Z,5.46
2023-01-10T06:18:20.926Z,5.49
2023-01-10T06:20:47.639Z,5.44
2023-01-10T06:23:14.335Z,5.39
2023-01-10T06:25:41.861Z,5.51
2023-01-10T06:28:13.133Z,5.47
2023-01-10T06:30:48.831Z,5.46
2023-01-10T06:33:15.761Z,5.48
2023-01-10T06:35:42.385Z,5.49
2023-01-10T06:38:16.920Z,5.49
2023-01-10T06:40:44.191Z,5.46
2023-01-10T06:43:10.811Z,5.49
2023-01-10T06:45:37.522Z,5.45
2023-01-10T06:48:04.727Z,5.44
2023-01-10T06:50:31.965Z,5.42
2023-01-10T06:53:04.442Z,5.39
2023-01-10T06:55:31.637Z,5.37
2023-01-10T06:58:00.983Z,5.36
2023-01-10T07:00:30.819Z,5.35
2023-01-10T07:03:01.648Z,5.40
2023-01-10T07:05:39.538Z,5.43
2023-01-10T07:08:06.211Z,5.42
2023-01-10T07:10:32.990Z,5.43
2023-01-10T07:12:59.763Z,5.43
2023-01-10T07:15:28.338Z,5.46
2023-01-10T07:18:00.716Z,5.46
2023-01-10T07:20:28.162Z,5.50
2023-01-10T07:23:01.417Z,5.47
2023-01-10T07:25:29.503Z,5.44
2023-01-10T07:27:56.170Z,5.43
2023-01-10T07:30:25.205Z,5.45
2023-01-10T07:33:03.982Z,5.45
2023-01-10T07:35:30.685Z,5.33
2023-01-10T07:38:00.686Z,5.32
2023-01-10T07:40:27.857Z,5.27
2023-01-10T07:43:01.775Z,5.25
2023-01-10T07:45:30.296Z,5.23
2023-01-10T07:48:02.136Z,5.15
2023-01-10T07:50:30.809Z,5.11
2023-01-10T07:52:59.604Z,5.11
2023-01-10T07:55:27.188Z,5.20
2023-01-10T07:57:54.117Z,5.13
2023-01-10T08:00:20.976Z,5.22
2023-01-10T08:02:51.233Z,5.21
2023-01-10T08:05:17.941Z,5.34
2023-01-10T08:07:44.747Z,5.43
2023-01-10T08:10:11.604Z,5.42
2023-01-10T08:12:38.928Z,5.47
2023-01-10T08:15:09.085Z,5.50
2023-01-10T08:17:36.377Z,5.50
2023-01-10T08:20:04.048Z,5.56
2023-01-10T08:22:30.564Z,5.63
2023-01-10T08:24:57.256Z,5.62
2023-01-10T08:27:23.928Z,5.67
2023-01-10T08:29:50.693Z,5.70
2023-01-10T08:32:17.545Z,5.73
2023-01-10T08:34:46.790Z,5.73
2023-01-10T08:37:16.820Z,5.78
2023-01-10T08:39:48.497Z,5.83
2023-01-10T08:42:20.872Z,5.86
2023-01-10T08:44:47.681Z,5.86
2023-01-10T08:47:18.083Z,5.85
2023-01-10T08:49:46.134Z,5.83
2023-01-10T08:52:13.315Z,5.92
2023-01-10T08:54:39.929Z,5.91
2023-01-10T08:57:06.610Z,5.89
2023-01-10T08:59:33.216Z,5.90
2023-01-10T09:02:04.958Z,5.96
2023-01-10T09:04:33.062Z,6.01
2023-01-10T09:06:59.891Z,6.02
2023-01-10T09:09:29.580Z,6.10
2023-01-10T09:12:00.456Z,6.19
2023-01-10T09:14:29.666Z,6.23
2023-01-10T09:16:58.688Z,6.21
2023-01-10T09:19:25.279Z,6.25
2023-01-10T09:21:51.865Z,6.12
2023-01-10T09:24:18.507Z,6.11
2023-01-10T09:26:47.524Z,6.18
2023-01-10T09:29:17.481Z,6.32
2023-01-10T09:31:46.556Z,6.35
2023-01-10T09:34:13.456Z,6.41
2023-01-10T09:36:45.624Z,6.47
2023-01-10T09:39:12.287Z,6.60
2023-01-10T09:42:18.080Z,6.74
2023-01-10T09:44:54.050Z,6.90
2023-01-10T09:47:43.822Z,6.86
2023-01-10T09:50:22.707Z,6.92
2023-01-10T09:53:20.671Z,6.81
2023-01-10T09:55:59.800Z,6.79
2023-01-10T09:58:31.410Z,6.79
2023-01-10T10:01:06.257Z,6.97
2023-01-10T10:04:06.921Z,7.04
2023-01-10T10:06:34.776Z,6.88
2023-01-10T10:09:03.620Z,6.75
2023-01-10T10:11:50.333Z,6.57
2023-01-10T10:14:42.768Z,6.44
2023-01-10T10:17:41.343Z,6.33
2023-01-10T10:20:38.493Z,6.52
2023-01-10T10:23:33.314Z,6.66
2023-01-10T10:26:17.816Z,6.60
2023-01-10T10:29:02.857Z,6.67
2023-01-10T10:31:29.888Z,6.69
2023-01-10T10:34:38.827Z,6.68
2023-01-10T10:37:20.618Z,6.79
2023-01-10T10:39:56.398Z,6.90
2023-01-10T10:42:37.288Z,6.89
2023-01-10T10:45:17.449Z,6.92
2023-01-10T10:47:50.588Z,6.90
2023-01-10T10:50:32.195Z,6.90
2023-01-10T10:53:01.993Z,6.90
2023-01-10T10:55:35.329Z,6.92
2023-01-10T10:58:04.435Z,6.82
2023-01-10T11:00:33.794Z,6.73
2023-01-10T11:03:21.834Z,6.74
2023-01-10T11:05:48.787Z,6.71
2023-01-10T11:08:18.512Z,6.71
2023-01-10T11:10:49.832Z,6.66
2023-01-10T11:13:34.683Z,6.74
2023-01-10T11:16:04.603Z,6.78
2023-01-10T11:18:32.793Z,6.84
2023-01-10T11:21:01.072Z,6.80
2023-01-10T11:23:40.094Z,6.92
2023-01-10T11:26:28.883Z,7.01
2023-01-10T11:29:18.879Z,7.10
2023-01-10T11:31:56.354Z,7.21
2023-01-10T11:34:35.954Z,7.37
2023-01-10T11:37:05.468Z,7.43
2023-01-10T11:39:33.115Z,7.59
2023-01-10T11:42:22.287Z,7.94
2023-01-10T11:44:48.877Z,8.52
2023-01-10T11:47:20.976Z,8.68
2023-01-10T11:49:51.309Z,8.60
2023-01-10T11:52:34.813Z,8.49
2023-01-10T11:55:02.886Z,8.84
2023-01-10T11:57:33.006Z,8.52
2023-01-10T12:00:03.820Z,8.04
2023-01-10T12:02:44.531Z,8.40
2023-01-10T12:05:19.912Z,8.35
2023-01-10T12:08:10.699Z,8.24
2023-01-10T12:10:37.343Z,7.99
2023-01-10T12:13:17.865Z,7.93
2023-01-10T12:15:47.047Z,7.84
2023-01-10T12:18:17.613Z,7.78
2023-01-10T12:20:53.900Z,7.67
2023-01-10T12:23:26.023Z,7.56
2023-01-10T12:26:07.162Z,7.45
2023-01-10T12:28:41.161Z,7.44
2023-01-10T12:31:14.229Z,7.50
2023-01-10T12:33:47.584Z,7.48
2023-01-10T12:36:38.478Z,8.19
2023-01-10T12:39:30.499Z,8.49
2023-01-10T12:42:35.685Z,8.15
2023-01-10T12:45:20.297Z,8.00
2023-01-10T12:47:53.521Z,8.01
2023-01-10T12:50:27.665Z,8.00
2023-01-10T12:53:29.359Z,7.93
2023-01-10T12:55:58.602Z,7.86
2023-01-10T12:58:47.259Z,7.83
2023-01-10T13:01:20.168Z,7.78
2023-01-10T13:04:06.072Z,7.85
2023-01-10T13:06:42.647Z,7.66
2023-01-10T13:09:17.215Z,7.55
2023-01-10T13:12:08.521Z,7.52
2023-01-10T13:15:02.183Z,7.50
2023-01-10T13:18:10.019Z,7.45
2023-01-10T13:20:41.036Z,7.44
2023-01-10T13:23:34.471Z,7.41
2023-01-10T13:26:15.090Z,7.38
2023-01-10T13:28:57.757Z,7.39
2023-01-10T13:31:32.875Z,7.37
2023-01-10T13:34:03.315Z,7.34
2023-01-10T13:36:42.208Z,7.35
2023-01-10T13:39:27.867Z,7.33
2023-01-10T13:42:19.142Z,7.33
2023-01-10T13:45:03.684Z,7.33
2023-01-10T13:47:42.059Z,7.34
2023-01-10T13:50:26.575Z,7.39
2023-01-10T13:53:25.691Z,7.36
2023-01-10T13:55:58.677Z,7.32
2023-01-10T13:58:43.954Z,7.29
2023-01-10T14:01:54.532Z,7.26
2023-01-10T14:04:25.814Z,7.21
2023-01-10T14:06:59.057Z,7.20
2023-01-10T14:09:28.859Z,7.20
2023-01-10T14:11:59.917Z,7.17
2023-01-10T14:14:37.910Z,7.14
2023-01-10T14:17:15.805Z,7.14
2023-01-10T14:19:48.557Z,7.13
2023-01-10T14:22:31.384Z,7.08
2023-01-10T14:25:00.613Z,7.09
2023-01-10T14:27:45.158Z,7.05
2023-01-10T14:30:37.889Z,6.97
2023-01-10T14:33:16.421Z,6.81
2023-01-10T14:35:48.163Z,6.72
2023-01-10T14:38:26.892Z,6.70
2023-01-10T14:41:00.543Z,6.66
2023-01-10T14:43:32.013Z,6.60
2023-01-10T14:46:19.042Z,6.50
2023-01-10T14:48:51.911Z,6.39
2023-01-10T14:51:24.730Z,6.36
2023-01-10T14:54:04.548Z,6.34
2023-01-10T14:56:39.012Z,6.28
2023-01-10T14:59:36.207Z,6.25
2023-01-10T15:02:26.464Z,6.22
2023-01-10T15:04:57.035Z,6.08
2023-01-10T15:07:25.541Z,6.00
2023-01-10T15:09:56.545Z,5.96
2023-01-10T15:12:29.775Z,5.90
2023-01-10T15:15:06.858Z,5.88
2023-01-10T15:17:35.710Z,5.86
2023-01-10T15:20:07.381Z,5.80
2023-01-10T15:22:38.852Z,5.77
2023-01-10T15:25:20.671Z,5.71
2023-01-10T15:27:52.157Z,5.69
2023-01-10T15:30:22.885Z,5.68
2023-01-10T15:32:52.158Z,5.69
2023-01-10T15:35:27.458Z,5.69
2023-01-10T15:38:10.631Z,5.61
2023-01-10T15:40:41.603Z,5.65
2023-01-10T15:43:39.498Z,5.65
2023-01-10T15:46:17.999Z,5.62
2023-01-10T15:49:05.287Z,5.55
2023-01-10T15:51:38.881Z,5.50
2023-01-10T15:54:21.746Z,5.49
2023-01-10T15:56:51.492Z,5.49
2023-01-10T15:59:32.994Z,5.42
2023-01-10T16:02:17.905Z,5.38
2023-01-10T16:04:49.452Z,5.33
2023-01-10T16:07:30.182Z,5.32
2023-01-10T16:10:02.714Z,5.30
2023-01-10T16:12:56.420Z,5.27
2023-01-10T16:15:27.001Z,5.34
2023-01-10T16:17:54.098Z,5.43
2023-01-10T16:20:35.186Z,5.46
2023-01-10T16:23:03.732Z,5.55
2023-01-10T16:25:44.683Z,5.59
2023-01-10T16:28:16.675Z,5.57
2023-01-10T16:30:51.878Z,5.56
2023-01-10T16:33:22.845Z,5.56
2023-01-10T16:35:52.495Z,5.57
2023-01-10T16:38:23.299Z,5.60
2023-01-10T16:41:22.283Z,5.63
2023-01-10T16:43:49.705Z,5.65
2023-01-10T16:46:19.483Z,5.67
2023-01-10T16:48:47.754Z,5.63
2023-01-10T16:51:18.554Z,5.60
2023-01-10T16:53:45.841Z,5.54
2023-01-10T16:56:15.127Z,5.54
2023-01-10T16:58:41.850Z,5.55
2023-01-10T17:01:14.098Z,5.51
2023-01-10T17:03:42.502Z,5.44
2023-01-10T17:06:12.186Z,5.47
2023-01-10T17:08:38.841Z,5.50
2023-01-10T17:11:08.132Z,5.53
2023-01-10T17:13:42.173Z,5.52
2023-01-10T17:16:08.831Z,5.57
2023-01-10T17:18:39.476Z,5.52
2023-01-10T17:21:14.556Z,5.52
2023-01-10T17:23:44.896Z,5.55
2023-01-10T17:26:16.299Z,5.51
2023-01-10T17:28:49.579Z,5.43
2023-01-10T17:31:17.833Z,5.38
2023-01-10T17:33:44.731Z,5.33
2023-01-10T17:36:12.059Z,5.34
2023-01-10T17:38:41.744Z,5.31
2023-01-10T17:41:10.166Z,5.32
2023-01-10T17:43:41.141Z,5.28
2023-01-10T17:46:07.918Z,5.25
2023-01-10T17:48:34.930Z,5.25
2023-01-10T17:51:07.584Z,5.20
2023-01-10T17:53:40.365Z,5.19
2023-01-10T17:56:07.871Z,5.15
2023-01-10T17:58:35.008Z,5.14
2023-01-10T18:01:01.723Z,5.10
2023-01-10T18:03:28.957Z,5.02
2023-01-10T18:05:57.614Z,5.03
2023-01-10T18:08:27.179Z,4.98
2023-01-10T18:11:00.723Z,4.98
2023-01-10T18:13:31.554Z,4.87
2023-01-10T18:16:00.254Z,4.77
2023-01-10T18:18:28.097Z,4.70
2023-01-10T18:20:58.317Z,4.66
2023-01-10T18:23:26.955Z,4.66
2023-01-10T18:26:00.125Z,4.63
2023-01-10T18:28:40.815Z,4.66
2023-01-10T18:31:16.897Z,4.58
2023-01-10T18:33:47.402Z,4.54
2023-01-10T18:36:23.025Z,4.51
2023-01-10T18:38:56.224Z,4.47
2023-01-10T18:41:22.919Z,4.44
2023-01-10T18:43:51.920Z,4.42
2023-01-10T18:46:23.647Z,4.36
2023-01-10T18:49:01.303Z,4.33
2023-01-10T18:51:27.991Z,4.28
2023-01-10T18:53:54.748Z,4.31
2023-01-10T18:56:23.230Z,4.28
2023-01-10T18:58:55.497Z,4.30
2023-01-10T19:01:23.104Z,4.27
2023-01-10T19:03:50.604Z,4.24
2023-01-10T19:06:19.873Z,4.29
2023-01-10T19:08:49.086Z,4.25
2023-01-10T19:11:18.702Z,4.15
2023-01-10T19:13:50.404Z,4.13
2023-01-10T19:16:22.640Z,4.15
2023-01-10T19:18:55.657Z,4.16
2023-01-10T19:21:23.414Z,4.11
2023-01-10T19:23:51.759Z,4.04
2023-01-10T19:26:18.529Z,3.95
2023-01-10T19:28:46.473Z,3.89
2023-01-10T19:31:18.429Z,3.87
2023-01-10T19:33:48.162Z,3.86
2023-01-10T19:36:15.593Z,3.83
2023-01-10T19:38:44.884Z,3.78
2023-01-10T19:41:14.498Z,3.75
2023-01-10T19:43:41.239Z,3.68
2023-01-10T19:46:09.611Z,3.64
2023-01-10T19:48:38.289Z,3.59
2023-01-10T19:51:15.287Z,3.60
2023-01-10T19:53:45.462Z,3.55
2023-01-10T19:56:19.701Z,3.54
2023-01-10T19:58:46.612Z,3.45
2023-01-10T20:01:16.579Z,3.38
2023-01-10T20:03:46.693Z,3.35
2023-01-10T20:06:17.428Z,3.35
2023-01-10T20:08:48.423Z,3.34
2023-01-10T20:11:16.555Z,3.36
2023-01-10T20:13:45.195Z,3.31
2023-01-10T20:16:14.018Z,3.31
2023-01-10T20:18:41.257Z,3.27
2023-01-10T20:21:13.226Z,3.22
2023-01-10T20:23:47.046Z,3.13
2023-01-10T20:26:22.784Z,3.04
2023-01-10T20:28:50.700Z,3.02
2023-01-10T20:31:24.160Z,2.95
2023-01-10T20:33:51.371Z,2.90
2023-01-10T20:36:22.282Z,2.82
2023-01-10T20:38:49.184Z,2.77
2023-01-10T20:41:22.202Z,2.72
2023-01-10T20:43:53.361Z,2.68
2023-01-10T20:46:32.113Z,2.67
2023-01-10T20:49:02.224Z,2.68
2023-01-10T20:51:32.414Z,2.63
2023-01-10T20:53:59.897Z,2.60
2023-01-10T20:56:29.715Z,2.61
2023-01-10T20:58:56.580Z,2.58
2023-01-10T21:01:34.296Z,2.60
2023-01-10T21:04:02.643Z,2.76
2023-01-10T21:06:32.613Z,2.66
2023-01-10T21:09:00.556Z,2.68
2023-01-10T21:11:27.372Z,2.81
2023-01-10T21:13:54.232Z,2.80
2023-01-10T21:16:22.601Z,2.86
2023-01-10T21:18:50.693Z,2.91
2023-01-10T21:21:22.856Z,2.95
2023-01-10T21:23:49.693Z,2.96
2023-01-10T21:26:16.656Z,2.97
2023-01-10T21:28:48.430Z,3.00
2023-01-10T21:31:17.759Z,2.94
2023-01-10T21:33:44.523Z,2.95
2023-01-10T21:36:13.498Z,3.00
2023-01-10T21:38:41.109Z,3.03
2023-01-10T21:41:11.884Z,3.07
2023-01-10T21:43:38.911Z,3.03
2023-01-10T21:46:05.847Z,2.99
2023-01-10T21:48:32.873Z,3.02
2023-01-10T21:50:59.544Z,3.06
2023-01-10T21:53:26.332Z,3.03
2023-01-10T21:55:52.967Z,3.03
2023-01-10T21:58:19.751Z,3.02
2023-01-10T22:00:46.431Z,3.02
2023-01-10T22:03:13.133Z,2.95
2023-01-10T22:05:40.533Z,2.96
2023-01-10T22:08:07.104Z,2.91
2023-01-10T22:10:33.802Z,2.92
2023-01-10T22:13:00.439Z,2.96
2023-01-10T22:15:27.234Z,2.98
2023-01-10T22:17:53.870Z,2.90
2023-01-10T22:20:26.558Z,2.96
2023-01-10T22:22:53.189Z,2.86
2023-01-10T22:25:19.866Z,2.87
2023-01-10T22:27:47.081Z,2.88
2023-01-10T22:30:13.816Z,2.90
2023-01-10T22:32:40.509Z,2.89
2023-01-10T22:35:14.931Z,2.93
2023-01-10T22:37:41.877Z,2.95
2023-01-10T22:40:12.301Z,2.94
2023-01-10T22:42:38.911Z,3.04
2023-01-10T22:45:06.208Z,3.06
2023-01-10T22:47:32.835Z,3.06
2023-01-10T22:49:59.491Z,3.12
2023-01-10T22:52:29.000Z,3.04
2023-01-10T22:54:56.046Z,3.03
2023-01-10T22:57:23.580Z,3.02
2023-01-10T22:59:50.194Z,3.08
2023-01-10T23:02:16.931Z,3.15
2023-01-10T23:04:49.371Z,3.19
2023-01-10T23:07:16.001Z,3.23
2023-01-10T23:09:42.648Z,3.25
2023-01-10T23:12:09.755Z,3.20
2023-01-10T23:14:36.683Z,3.20
2023-01-10T23:17:03.310Z,3.17
2023-01-10T23:19:29.926Z,3.14
2023-01-10T23:21:56.558Z,3.23
2023-01-10T23:24:23.194Z,3.24
2023-01-10T23:26:50.709Z,3.20
2023-01-10T23:29:18.158Z,3.27
2023-01-10T23:31:49.688Z,3.34
2023-01-10T23:34:19.278Z,3.38
2023-01-10T23:36:45.906Z,3.34
2023-01-10T23:39:12.651Z,3.34
2023-01-10T23:41:45.460Z,3.34
2023-01-10T23:44:12.109Z,3.30
2023-01-10T23:46:38.717Z,3.32
2023-01-10T23:49:05.471Z,3.29
2023-01-10T23:51:32.599Z,3.30
2023-01-10T23:53:59.225Z,3.22
2023-01-10T23:56:25.906Z,3.25
2023-01-10T23:58:52.803Z,3.25
